Time;durP1;ratioP1;P1;durP2;ratioP2;P2;SDS_P1;SDS_P2;PMS_P1;PMS_P2;Temp;Humidity;BMP_temperature;BMP_pressure;BME280_temperature;BME280_humidity;BME280_pressure;Samples;Min_cycle;Max_cycle;Signal;HPM_P1;HPM_P2
2022/11/22 00:04:21;;;;;;;83.10;34.10;;;;;;;-0.25;99.93;97536.75;214374;1310;22480;-71
2022/11/22 00:09:28;;;;;;;100.80;44.30;;;;;;;-0.18;100.00;97534.56;214275;1310;22561;-71
2022/11/22 00:14:34;;;;;;;90.50;36.00;;;;;;;-0.09;100.00;97538.95;214428;1304;22494;-70
2022/11/22 00:19:38;;;;;;;111.50;41.40;;;;;;;-0.01;99.94;97538.14;214591;1310;22502;-70
2022/11/22 00:24:40;;;;;;;107.70;40.10;;;;;;;0.05;99.99;97547.14;214322;1310;23211;-71
2022/11/22 00:29:41;;;;;;;94.10;37.50;;;;;;;0.08;99.84;97552.64;214313;1310;22513;-70
2022/11/22 00:34:43;;;;;;;103.10;38.20;;;;;;;0.06;99.44;97555.75;214237;1310;22470;-70
2022/11/22 00:39:45;;;;;;;87.50;34.40;;;;;;;0.06;99.45;97553.21;214596;1310;22474;-71
2022/11/22 00:44:47;;;;;;;84.50;34.50;;;;;;;0.02;99.38;97551.75;214638;1309;24509;-72
2022/11/22 00:49:49;;;;;;;87.60;35.10;;;;;;;0.05;99.78;97546.73;214344;1310;22498;-70
2022/11/22 00:54:51;;;;;;;98.50;34.60;;;;;;;0.13;99.98;97546.22;214494;1310;22527;-70
2022/11/22 00:59:55;;;;;;;75.80;29.80;;;;;;;0.19;100.00;97552.59;214265;1310;25263;-70
2022/11/22 01:04:57;;;;;;;69.60;28.80;;;;;;;0.22;99.99;97555.04;214376;1310;25288;-71
2022/11/22 01:09:59;;;;;;;64.70;27.70;;;;;;;0.21;99.88;97552.23;214526;1310;22461;-72
2022/11/22 01:15:02;;;;;;;72.90;29.80;;;;;;;0.19;99.87;97548.15;214458;1301;22501;-71
2022/11/22 01:20:04;;;;;;;87.30;37.80;;;;;;;0.18;99.97;97545.25;214462;1310;23503;-71
2022/11/22 01:25:07;;;;;;;89.10;36.40;;;;;;;0.19;99.93;97532.94;214341;1309;22750;-70
2022/11/22 01:30:09;;;;;;;71.30;27.80;;;;;;;0.17;99.81;97534.13;214465;1309;24123;-72
2022/11/22 01:35:11;;;;;;;74.00;32.00;;;;;;;0.11;99.87;97530.02;214286;1310;25242;-70
2022/11/22 01:40:13;;;;;;;71.10;31.30;;;;;;;0.03;99.50;97527.33;214313;1310;25260;-70
2022/11/22 01:45:31;;;;;;;62.10;27.30;;;;;;;-0.09;99.51;97518.79;214287;1310;22532;-71
2022/11/22 01:50:36;;;;;;;61.80;25.20;;;;;;;-0.19;99.59;97511.48;214420;1309;22516;-71
2022/11/22 01:55:40;;;;;;;55.40;24.50;;;;;;;-0.32;99.10;97491.16;214521;1309;24467;-72
2022/11/22 02:00:42;;;;;;;65.10;27.70;;;;;;;-0.52;98.99;97479.56;214281;1310;22472;-72
2022/11/22 02:05:46;;;;;;;57.20;26.80;;;;;;;-0.66;98.82;97479.13;214226;1309;24310;-70
2022/11/22 02:10:50;;;;;;;58.70;25.30;;;;;;;-0.80;99.16;97484.71;214329;1310;25466;-70
2022/11/22 02:15:53;;;;;;;67.10;29.60;;;;;;;-0.86;99.45;97485.92;214513;1308;22538;-69
2022/11/22 02:20:56;;;;;;;66.80;28.00;;;;;;;-0.88;99.52;97489.21;214435;1309;25254;-70
2022/11/22 02:25:59;;;;;;;64.90;28.80;;;;;;;-0.89;99.47;97492.61;214219;1310;22450;-71
2022/11/22 02:31:02;;;;;;;62.70;29.60;;;;;;;-0.92;99.44;97484.84;214352;1310;24565;-72
2022/11/22 02:36:04;;;;;;;71.20;28.50;;;;;;;-1.02;99.21;97478.05;214403;1310;22481;-71
2022/11/22 02:41:10;;;;;;;67.80;29.40;;;;;;;-1.12;99.49;97481.83;214430;1309;22475;-70
2022/11/22 02:46:21;;;;;;;55.10;24.70;;;;;;;-1.14;99.71;97479.11;214311;1310;24471;-70
2022/11/22 02:51:25;;;;;;;51.50;21.90;;;;;;;-1.16;99.57;97482.05;214425;1309;25358;-70
2022/11/22 02:56:27;;;;;;;53.60;23.30;;;;;;;-1.16;99.65;97480.98;214464;1310;25321;-71
2022/11/22 03:01:29;;;;;;;54.50;22.60;;;;;;;-1.18;99.73;97466.19;214314;1310;24480;-70
2022/11/22 03:06:31;;;;;;;45.60;21.80;;;;;;;-1.23;99.72;97463.02;214292;1309;25492;-70
2022/11/22 03:11:33;;;;;;;44.20;18.10;;;;;;;-1.29;99.76;97467.69;214462;1309;25330;-70
2022/11/22 03:16:34;;;;;;;35.90;16.40;;;;;;;-1.34;99.81;97459.42;214257;1308;22577;-73
2022/11/22 03:21:38;;;;;;;36.70;18.30;;;;;;;-1.42;99.72;97451.07;214254;1310;22511;-70
2022/11/22 03:26:40;;;;;;;37.30;15.60;;;;;;;-1.43;99.89;97444.44;214479;1310;22582;-71
2022/11/22 03:31:42;;;;;;;36.30;17.10;;;;;;;-1.39;100.00;97444.02;214438;1310;22494;-70
2022/11/22 03:36:44;;;;;;;33.50;15.70;;;;;;;-1.37;100.00;97436.89;214180;1310;22457;-70
2022/11/22 03:41:46;;;;;;;49.00;16.30;;;;;;;-1.37;100.00;97444.04;214568;1309;22455;-69
2022/11/22 03:46:48;;;;;;;34.10;15.00;;;;;;;-1.39;100.00;97444.86;214182;1308;25403;-71
2022/11/22 03:51:50;;;;;;;32.80;14.70;;;;;;;-1.36;100.00;97444.10;214332;1303;24252;-70
2022/11/22 03:56:52;;;;;;;37.30;15.30;;;;;;;-1.32;100.00;97439.68;214285;1310;25504;-71
2022/11/22 04:01:53;;;;;;;43.00;18.20;;;;;;;-1.27;100.00;97440.84;214192;1309;22499;-70
2022/11/22 04:06:55;;;;;;;36.70;16.40;;;;;;;-1.21;100.00;97439.50;214279;1303;25521;-71
2022/11/22 04:11:57;;;;;;;49.60;21.40;;;;;;;-1.17;100.00;97435.19;214409;1310;23018;-70
2022/11/22 04:16:59;;;;;;;44.90;18.80;;;;;;;-1.19;100.00;97442.05;214266;1309;23138;-70
2022/11/22 04:22:01;;;;;;;41.00;18.10;;;;;;;-1.21;100.00;97435.61;214490;1310;25316;-69
2022/11/22 04:27:03;;;;;;;30.60;15.60;;;;;;;-1.23;100.00;97438.33;214337;1309;25451;-70
2022/11/22 04:37:25;;;;;;;39.90;18.40;;;;;;;-1.24;100.00;97432.37;214494;1310;24430;-70
2022/11/22 04:48:00;;;;;;;45.20;18.70;;;;;;;-1.26;100.00;97434.83;214346;1309;22489;-71
2022/11/22 04:53:03;;;;;;;48.60;18.30;;;;;;;-1.29;100.00;97429.27;214365;1310;25483;-69
2022/11/22 04:58:05;;;;;;;40.60;19.30;;;;;;;-1.31;100.00;97426.04;214355;1309;22526;-71
2022/11/22 05:03:07;;;;;;;39.30;19.20;;;;;;;-1.35;100.00;97418.30;214429;1309;22481;-70
2022/11/22 05:08:10;;;;;;;41.10;16.80;;;;;;;-1.36;100.00;97414.69;214372;1308;22477;-71
2022/11/22 05:13:12;;;;;;;39.60;17.00;;;;;;;-1.33;100.00;97407.63;214577;1310;22502;-71
2022/11/22 05:18:14;;;;;;;51.20;21.40;;;;;;;-1.30;100.00;97405.52;214546;1286;24432;-70
2022/11/22 05:28:38;;;;;;;51.30;20.60;;;;;;;-1.23;100.00;97412.63;214417;1309;24356;-70
2022/11/22 05:33:42;;;;;;;35.60;16.60;;;;;;;-1.24;100.00;97406.68;214479;1309;22479;-70
2022/11/22 05:38:44;;;;;;;47.20;20.00;;;;;;;-1.26;100.00;97413.39;214250;1310;25319;-70
2022/11/22 05:43:46;;;;;;;56.50;22.80;;;;;;;-1.29;100.00;97417.77;214321;1310;24067;-70
2022/11/22 05:48:48;;;;;;;44.50;21.20;;;;;;;-1.34;100.00;97415.44;214316;1310;22531;-70
2022/11/22 05:53:50;;;;;;;55.60;23.30;;;;;;;-1.41;100.00;97422.86;214442;1310;22465;-72
2022/11/22 05:58:52;;;;;;;44.20;19.70;;;;;;;-1.47;100.00;97434.66;214351;1310;23792;-70
2022/11/22 06:03:54;;;;;;;45.70;19.90;;;;;;;-1.54;100.00;97431.05;214370;1309;25360;-71
2022/11/22 06:08:58;;;;;;;51.50;23.90;;;;;;;-1.60;100.00;97431.30;214554;1310;22514;-71
2022/11/22 06:14:02;;;;;;;43.90;21.30;;;;;;;-1.63;100.00;97436.03;214184;1310;23809;-70
2022/11/22 06:19:04;;;;;;;48.90;22.20;;;;;;;-1.57;100.00;97443.72;214316;1310;24244;-70
2022/11/22 06:24:06;;;;;;;48.70;23.30;;;;;;;-1.51;100.00;97445.11;214547;1310;22471;-70
2022/11/22 06:29:08;;;;;;;53.20;25.30;;;;;;;-1.49;100.00;97454.70;214460;1310;23731;-71
2022/11/22 06:34:11;;;;;;;40.30;19.60;;;;;;;-1.51;100.00;97457.05;214440;1309;22495;-73
2022/11/22 06:39:13;;;;;;;48.90;24.70;;;;;;;-1.51;100.00;97460.14;214209;1309;25183;-71
2022/11/22 06:44:15;;;;;;;58.80;26.50;;;;;;;-1.49;100.00;97453.85;214574;1288;25451;-71
2022/11/22 06:49:16;;;;;;;51.00;24.30;;;;;;;-1.47;100.00;97449.52;214469;1286;24471;-71
2022/11/22 06:54:18;;;;;;;55.90;26.20;;;;;;;-1.36;100.00;97459.29;214441;1278;22465;-71
2022/11/22 06:59:20;;;;;;;50.10;25.60;;;;;;;-1.23;100.00;97468.17;214830;1285;22525;-71
2022/11/22 07:04:22;;;;;;;51.50;25.80;;;;;;;-1.14;100.00;97468.55;215022;1281;22536;-71
2022/11/22 07:09:24;;;;;;;58.60;28.00;;;;;;;-1.07;100.00;97468.70;214763;1278;22994;-71
2022/11/22 07:14:26;;;;;;;43.10;21.80;;;;;;;-0.99;100.00;97466.10;214573;1278;22543;-70
2022/11/22 07:19:28;;;;;;;60.90;28.60;;;;;;;-0.91;100.00;97463.61;214530;1278;24311;-74
2022/11/22 07:24:30;;;;;;;62.10;29.40;;;;;;;-0.78;100.00;97472.48;214736;1280;22526;-73
2022/11/22 07:29:32;;;;;;;52.30;26.80;;;;;;;-0.26;100.00;97468.80;215296;1279;22472;-71
2022/11/22 07:34:34;;;;;;;55.20;28.10;;;;;;;-0.11;100.00;97469.66;214702;1282;24071;-71
2022/11/22 07:39:36;;;;;;;60.90;31.10;;;;;;;-0.03;100.00;97466.83;214705;1284;22595;-73
2022/11/22 07:44:38;;;;;;;50.20;27.20;;;;;;;0.08;100.00;97467.65;214528;1278;22706;-72
2022/11/22 07:49:40;;;;;;;58.10;29.40;;;;;;;0.18;100.00;97465.87;214584;1282;23895;-73
2022/11/22 07:54:42;;;;;;;54.90;30.20;;;;;;;0.26;100.00;97461.81;214683;1281;22493;-71
2022/11/22 07:59:43;;;;;;;61.10;32.10;;;;;;;0.39;100.00;97471.97;214760;1285;22544;-74
2022/11/22 08:04:45;;;;;;;53.50;28.40;;;;;;;0.49;100.00;97469.02;214652;1281;22468;-70
2022/11/22 08:09:47;;;;;;;56.20;29.40;;;;;;;0.56;100.00;97471.38;214764;1288;25220;-70
2022/11/22 08:14:49;;;;;;;54.00;29.40;;;;;;;0.73;100.00;97464.20;214602;1310;22511;-70
2022/11/22 08:19:52;;;;;;;55.30;29.10;;;;;;;1.04;100.00;97467.92;214758;1294;22470;-73
2022/11/22 08:24:54;;;;;;;46.50;27.10;;;;;;;1.21;100.00;97458.21;214571;1295;22521;-72
2022/11/22 08:29:55;;;;;;;47.00;25.40;;;;;;;1.36;100.00;97448.16;214889;1278;25467;-72
2022/11/22 08:34:57;;;;;;;35.60;21.40;;;;;;;1.49;100.00;97445.77;214821;1285;26347;-70
2022/11/22 08:39:59;;;;;;;40.80;22.20;;;;;;;1.60;100.00;97446.85;214733;1289;22688;-72
2022/11/22 08:45:01;;;;;;;42.90;25.00;;;;;;;1.71;100.00;97442.58;214701;1287;26553;-72
2022/11/22 08:50:04;;;;;;;37.60;21.10;;;;;;;1.89;100.00;97450.73;214654;1298;25280;-72
2022/11/22 08:55:06;;;;;;;37.80;22.00;;;;;;;2.12;100.00;97451.14;214851;1281;22483;-71
2022/11/22 09:00:10;;;;;;;41.00;22.90;;;;;;;2.38;100.00;97457.98;214696;1278;25291;-71
2022/11/22 09:05:12;;;;;;;41.70;23.70;;;;;;;2.56;100.00;97450.85;215005;1278;22471;-71
2022/11/22 09:10:13;;;;;;;46.20;25.70;;;;;;;2.74;100.00;97451.34;214833;1285;23840;-70
2022/11/22 09:15:16;;;;;;;40.30;23.00;;;;;;;2.90;100.00;97444.83;214878;1285;24307;-70
2022/11/22 09:20:18;;;;;;;42.80;24.40;;;;;;;3.06;100.00;97442.39;214707;1281;23047;-69
2022/11/22 09:25:19;;;;;;;37.40;22.80;;;;;;;3.17;100.00;97443.55;214739;1278;22478;-72
2022/11/22 09:30:21;;;;;;;42.70;25.30;;;;;;;3.29;100.00;97442.16;214619;1296;22515;-71
2022/11/22 09:35:23;;;;;;;40.80;23.90;;;;;;;3.43;100.00;97436.84;215139;1281;22467;-68
2022/11/22 09:40:25;;;;;;;42.50;24.10;;;;;;;3.57;100.00;97435.06;214836;1285;22469;-68
2022/11/22 09:45:41;;;;;;;34.60;21.20;;;;;;;3.78;100.00;97430.73;214854;1289;23716;-68
2022/11/22 09:50:46;;;;;;;38.00;21.90;;;;;;;4.03;100.00;97430.22;214829;1278;22490;-69
2022/11/22 09:55:59;;;;;;;33.10;18.90;;;;;;;4.30;100.00;97429.27;214876;1285;25383;-70
2022/11/22 10:01:16;;;;;;;34.50;18.90;;;;;;;4.61;99.97;97429.50;214738;1278;22515;-71
2022/11/22 10:06:25;;;;;;;28.20;15.80;;;;;;;4.93;99.40;97430.88;215062;1281;23236;-70
2022/11/22 10:11:44;;;;;;;22.10;13.10;;;;;;;5.19;99.19;97439.70;214887;1281;22546;-70
2022/11/22 10:16:56;;;;;;;16.40;9.90;;;;;;;5.52;98.58;97439.24;214993;1282;26459;-69
2022/11/22 10:21:57;;;;;;;16.10;9.40;;;;;;;5.80;97.78;97431.27;215440;1278;22628;-68
2022/11/22 10:27:00;;;;;;;14.10;8.20;;;;;;;6.09;97.14;97423.34;214935;1280;23779;-71
2022/11/22 10:32:37;;;;;;;15.20;8.60;;;;;;;6.31;96.07;97412.33;214934;1278;22524;-72
2022/11/22 10:37:53;;;;;;;16.20;9.10;;;;;;;6.47;95.12;97407.54;214766;1278;141153;-70
2022/11/22 10:43:24;;;;;;;18.10;10.40;;;;;;;6.62;93.98;97409.75;215037;1281;23744;-70
2022/11/22 10:49:03;;;;;;;15.60;9.00;;;;;;;6.71;92.97;97405.95;214997;1278;25300;-69
2022/11/22 10:54:41;;;;;;;11.00;7.40;;;;;;;6.79;91.76;97402.07;214866;1278;22612;-70
2022/11/22 11:00:01;;;;;;;11.40;7.90;;;;;;;6.88;91.08;97406.21;214808;1281;22477;-70
2022/11/22 11:05:06;;;;;;;;;;;;;;;6.99;90.84;97401.08;214920;1278;25386;-70
2022/11/22 11:10:20;;;;;;;13.80;7.90;;;;;;;7.05;90.16;97402.67;214861;1281;22476;-69
2022/11/22 11:15:43;;;;;;;17.20;8.10;;;;;;;6.99;89.47;97405.95;214861;1278;22491;-70
2022/11/22 11:20:46;;;;;;;13.70;8.60;;;;;;;6.86;88.93;97405.94;214768;1281;24716;-71
2022/11/22 11:25:50;;;;;;;15.60;9.10;;;;;;;6.74;88.56;97407.14;214865;1295;25353;-72
2022/11/22 11:31:07;;;;;;;14.00;8.30;;;;;;;6.72;88.73;97407.73;214819;1282;23730;-71
2022/11/22 11:36:37;;;;;;;16.90;9.30;;;;;;;6.71;88.36;97410.73;214759;1302;26371;-72
2022/11/22 11:41:39;;;;;;;16.90;9.30;;;;;;;6.74;88.37;97411.36;214873;1278;23226;-75
2022/11/22 11:46:45;;;;;;;18.30;9.10;;;;;;;6.81;88.19;97404.69;214732;1287;22562;-71
2022/11/22 11:51:53;;;;;;;18.90;10.90;;;;;;;6.86;88.10;97407.23;214782;1285;22596;-69
2022/11/22 11:56:57;;;;;;;15.20;8.90;;;;;;;6.86;87.86;97403.11;214907;1294;22483;-71
2022/11/22 12:02:02;;;;;;;18.00;9.70;;;;;;;6.84;87.75;97400.29;215392;1295;25225;-71
2022/11/22 12:07:18;;;;;;;16.90;9.60;;;;;;;6.79;87.44;97395.73;214821;1288;24276;-71
2022/11/22 12:12:48;;;;;;;15.20;8.40;;;;;;;6.76;87.70;97397.94;214995;1278;24287;-71
2022/11/22 12:17:59;;;;;;;17.80;10.00;;;;;;;6.71;87.12;97393.66;214896;1286;22469;-71
2022/11/22 12:23:29;;;;;;;15.60;8.90;;;;;;;6.67;87.43;97396.09;214961;1281;22626;-70
2022/11/22 12:28:32;;;;;;;17.30;9.40;;;;;;;6.60;87.36;97392.00;214746;1281;25260;-70
2022/11/22 12:33:42;;;;;;;19.10;10.40;;;;;;;6.61;87.65;97380.56;214710;1288;22468;-69
2022/11/22 12:38:46;;;;;;;18.60;10.70;;;;;;;6.61;87.17;97384.50;214817;1309;23089;-70
2022/11/22 12:43:59;;;;;;;15.90;9.70;;;;;;;6.59;87.22;97388.84;214930;1284;22511;-72
2022/11/22 12:49:24;;;;;;;16.90;9.40;;;;;;;6.61;87.46;97384.72;215294;1287;24265;-69
2022/11/22 12:54:37;;;;;;;16.70;10.40;;;;;;;6.59;87.12;97380.70;214814;1278;24244;-69
2022/11/22 12:59:51;;;;;;;15.20;8.90;;;;;;;6.57;86.80;97377.94;214804;1293;22618;-69
2022/11/22 13:05:00;;;;;;;16.30;9.60;;;;;;;6.54;87.06;97370.85;214705;1288;24267;-68
2022/11/22 13:10:11;;;;;;;14.80;9.30;;;;;;;6.50;86.67;97371.35;214926;1284;22474;-69
2022/11/22 13:15:24;;;;;;;16.40;9.80;;;;;;;6.47;86.63;97367.54;214711;1288;22542;-68
2022/11/22 13:20:33;;;;;;;14.30;8.50;;;;;;;6.46;86.94;97362.55;214940;1285;25398;-68
2022/11/22 13:26:18;;;;;;;15.30;10.00;;;;;;;6.47;86.69;97359.42;214840;1289;22620;-70
2022/11/22 13:31:20;;;;;;;21.30;13.20;;;;;;;6.48;86.89;97361.45;214502;1310;25290;-69
2022/11/22 13:36:26;;;;;;;26.90;13.90;;;;;;;6.48;87.02;97356.06;214478;1310;24434;-70
2022/11/22 13:41:37;;;;;;;24.90;13.70;;;;;;;6.47;86.80;97346.14;214762;1295;23971;-69
2022/11/22 13:46:49;;;;;;;25.80;14.00;;;;;;;6.45;86.82;97339.79;215225;1294;22467;-70
2022/11/22 13:51:53;;;;;;;18.10;10.80;;;;;;;6.46;86.98;97342.96;214818;1285;22462;-71
2022/11/22 13:57:03;;;;;;;21.80;12.40;;;;;;;6.43;86.69;97343.02;214867;1282;22634;-69
2022/11/22 14:02:21;;;;;;;25.20;12.60;;;;;;;6.40;86.70;97346.42;215077;1278;22541;-69
2022/11/22 14:07:33;;;;;;;26.50;13.40;;;;;;;6.38;86.33;97343.61;215154;1281;25375;-70
2022/11/22 14:13:02;;;;;;;27.10;13.30;;;;;;;6.37;86.42;97348.58;214850;1291;25313;-70
2022/11/22 14:18:16;;;;;;;19.30;10.50;;;;;;;6.40;86.42;97353.68;214570;1310;23674;-72
2022/11/22 14:23:37;;;;;;;25.70;12.50;;;;;;;6.42;86.60;97359.31;214935;1288;24317;-72
2022/11/22 14:28:48;;;;;;;23.40;12.30;;;;;;;6.44;86.42;97358.02;214835;1309;25223;-70
2022/11/22 14:34:13;;;;;;;22.90;12.70;;;;;;;6.38;85.98;97357.16;215231;1284;22481;-73
2022/11/22 14:39:43;;;;;;;23.70;13.20;;;;;;;6.33;86.08;97365.11;214721;1285;22530;-71
2022/11/22 14:44:45;;;;;;;28.00;14.30;;;;;;;6.29;86.01;97360.78;214895;1284;24277;-71
2022/11/22 14:49:49;;;;;;;29.60;14.80;;;;;;;6.24;85.76;97363.81;214573;1286;23782;-74
2022/11/22 14:54:56;;;;;;;29.80;15.50;;;;;;;6.17;85.88;97367.50;214904;1286;26436;-72
2022/11/22 15:00:21;;;;;;;29.90;14.50;;;;;;;6.13;85.94;97367.14;214685;1286;22511;-71
2022/11/22 15:05:38;;;;;;;29.10;14.60;;;;;;;6.14;86.02;97363.23;214547;1284;22517;-70
2022/11/22 15:11:03;;;;;;;33.70;15.20;;;;;;;6.16;86.16;97366.28;214389;1294;22481;-72
2022/11/22 15:16:42;;;;;;;77.20;40.30;;;;;;;6.08;85.69;97373.04;214234;1310;22596;-71
2022/11/22 15:22:22;;;;;;;32.20;16.30;;;;;;;5.98;85.91;97378.55;213539;1309;22598;-73
2022/11/22 15:27:47;;;;;;;25.60;14.90;;;;;;;5.91;85.93;97385.98;214120;1310;22486;-71
2022/11/22 15:33:20;;;;;;;26.70;13.40;;;;;;;5.88;86.05;97387.15;214065;1310;22495;-72
2022/11/22 15:38:42;;;;;;;28.40;15.80;;;;;;;5.84;86.47;97381.85;214190;1310;22514;-72
2022/11/22 15:44:06;;;;;;;26.80;15.20;;;;;;;5.81;86.29;97381.14;214069;1310;22479;-71
2022/11/22 15:49:28;;;;;;;28.70;17.00;;;;;;;5.78;86.46;97385.51;214195;1310;23568;-73
2022/11/22 15:54:55;;;;;;;27.60;15.10;;;;;;;5.74;86.60;97392.20;214200;1310;26382;-71
2022/11/22 16:00:26;;;;;;;40.20;19.00;;;;;;;5.71;86.60;97395.73;214171;1310;24339;-71
2022/11/22 16:05:32;;;;;;;39.60;18.60;;;;;;;5.65;86.75;97398.05;214271;1310;22527;-71
2022/11/22 16:10:53;;;;;;;31.80;15.90;;;;;;;5.62;86.77;97405.48;214251;1310;24087;-71
2022/11/22 16:16:11;;;;;;;27.20;15.00;;;;;;;5.60;86.73;97398.06;214160;1310;24427;-70
2022/11/22 16:21:28;;;;;;;29.40;15.70;;;;;;;5.56;86.70;97400.09;214123;1310;22503;-72
2022/11/22 16:26:30;;;;;;;27.50;15.90;;;;;;;5.53;86.96;97403.11;214154;1305;24279;-72
2022/11/22 16:31:39;;;;;;;28.50;14.40;;;;;;;5.47;86.76;97404.20;214206;1310;22491;-71
2022/11/22 16:36:41;;;;;;;27.10;15.10;;;;;;;5.47;87.27;97406.91;214111;1310;22476;-70
2022/11/22 16:41:43;;;;;;;29.90;15.90;;;;;;;5.43;86.98;97414.51;214129;1310;22553;-71
2022/11/22 16:46:45;;;;;;;27.20;15.30;;;;;;;5.36;87.09;97420.77;214037;1310;22488;-71
2022/11/22 16:51:49;;;;;;;28.70;15.00;;;;;;;5.34;87.10;97428.92;214206;1312;22665;-73
2022/11/22 16:56:51;;;;;;;28.50;16.60;;;;;;;5.32;87.19;97430.61;214258;1310;22506;-71
2022/11/22 17:01:53;;;;;;;28.20;14.20;;;;;;;5.31;87.25;97431.68;214205;1310;24270;-71
2022/11/22 17:06:55;;;;;;;33.30;17.10;;;;;;;5.31;87.42;97435.96;214048;1310;22527;-71
2022/11/22 17:11:57;;;;;;;29.00;15.70;;;;;;;5.29;87.17;97438.17;214066;1310;22544;-71
2022/11/22 17:16:59;;;;;;;31.50;16.80;;;;;;;5.29;87.17;97437.06;214206;1310;22642;-72
2022/11/22 17:22:01;;;;;;;30.20;16.10;;;;;;;5.29;87.47;97441.84;214127;1310;22496;-71
2022/11/22 17:27:03;;;;;;;33.00;18.10;;;;;;;5.27;87.67;97444.63;214075;1310;22508;-70
2022/11/22 17:32:09;;;;;;;27.60;15.20;;;;;;;5.24;87.44;97448.39;214086;1310;25355;-71
2022/11/22 17:37:11;;;;;;;32.40;17.30;;;;;;;5.21;87.33;97455.48;214190;1310;25038;-72
2022/11/22 17:42:14;;;;;;;33.80;17.40;;;;;;;5.17;87.55;97456.98;214343;1314;24304;-71
2022/11/22 17:47:16;;;;;;;33.70;17.10;;;;;;;5.14;87.49;97456.52;214022;1310;22471;-71
2022/11/22 17:52:17;;;;;;;36.90;17.30;;;;;;;5.11;87.44;97459.59;214128;1311;22477;-71
2022/11/22 17:57:19;;;;;;;34.80;18.80;;;;;;;5.11;87.79;97460.45;214099;1310;22470;-71
2022/11/22 18:02:21;;;;;;;34.30;16.80;;;;;;;5.10;87.95;97463.81;214189;1310;22470;-71
2022/11/22 18:07:27;;;;;;;30.80;16.10;;;;;;;5.05;87.52;97463.77;214313;1310;24223;-69
2022/11/22 18:12:29;;;;;;;36.60;17.70;;;;;;;4.97;87.36;97467.67;214188;1310;25262;-71
2022/11/22 18:17:32;;;;;;;33.20;17.20;;;;;;;4.85;87.46;97464.46;214306;1310;25798;-71
2022/11/22 18:22:34;;;;;;;33.10;16.30;;;;;;;4.79;87.71;97456.52;214011;1310;24435;-70
2022/11/22 18:27:36;;;;;;;39.00;20.10;;;;;;;4.75;87.63;97454.70;214116;1310;25101;-72
2022/11/22 18:32:43;;;;;;;34.70;18.80;;;;;;;4.66;87.63;97467.42;214079;1310;22515;-70
2022/11/22 18:37:45;;;;;;;34.30;19.60;;;;;;;4.59;87.82;97467.02;214210;1310;22780;-72
2022/11/22 18:42:49;;;;;;;31.50;18.10;;;;;;;4.53;88.08;97466.61;214181;1310;23164;-71
2022/11/22 18:47:51;;;;;;;39.40;18.90;;;;;;;4.46;88.16;97462.43;214257;1309;24279;-72
2022/11/22 18:52:56;;;;;;;33.10;17.40;;;;;;;4.40;88.20;97459.84;214092;1310;22493;-71
2022/11/22 18:57:58;;;;;;;29.40;17.90;;;;;;;4.31;88.32;97463.30;214031;1309;22538;-72
2022/11/22 19:03:00;;;;;;;28.60;15.80;;;;;;;4.20;88.42;97463.35;214178;1310;22532;-72
2022/11/22 19:08:02;;;;;;;28.80;15.70;;;;;;;4.10;88.80;97462.23;214279;1310;22536;-70
2022/11/22 19:13:04;;;;;;;26.40;14.20;;;;;;;4.00;88.73;97465.00;214287;1309;22669;-71
2022/11/22 19:18:08;;;;;;;27.00;13.50;;;;;;;3.94;89.04;97462.72;214298;1310;23050;-69
2022/11/22 19:23:10;;;;;;;24.40;14.70;;;;;;;3.92;89.45;97465.98;214308;1310;24248;-70
2022/11/22 19:28:12;;;;;;;30.60;16.50;;;;;;;3.87;89.10;97469.14;214063;1310;22572;-70
2022/11/22 19:33:15;;;;;;;34.80;17.50;;;;;;;3.81;89.38;97477.50;214174;1310;25382;-71
2022/11/22 19:38:17;;;;;;;40.60;17.80;;;;;;;3.76;89.25;97485.41;214291;1310;24349;-72
2022/11/22 19:43:20;;;;;;;38.60;19.60;;;;;;;3.74;89.57;97493.74;214068;1310;25384;-72
2022/11/22 19:48:22;;;;;;;37.20;19.30;;;;;;;3.72;89.74;97495.30;214067;1310;24275;-71
2022/11/22 19:53:24;;;;;;;41.90;21.30;;;;;;;3.69;89.52;97497.33;214034;1310;22554;-70
2022/11/22 19:58:26;;;;;;;46.50;23.30;;;;;;;3.66;89.90;97493.38;214214;1310;23164;-71
2022/11/22 20:03:28;;;;;;;38.60;21.00;;;;;;;3.65;90.02;97498.46;214249;1310;22493;-71
2022/11/22 20:08:30;;;;;;;37.70;20.50;;;;;;;3.64;90.24;97501.12;214024;1310;24455;-72
2022/11/22 20:13:35;;;;;;;37.60;20.40;;;;;;;3.58;89.94;97508.35;214053;1310;22458;-70
2022/11/22 20:18:37;;;;;;;36.90;19.20;;;;;;;3.52;90.17;97505.84;214114;1310;22608;-71
2022/11/22 20:23:39;;;;;;;40.90;20.50;;;;;;;3.47;90.12;97506.56;214273;1310;23776;-71
2022/11/22 20:28:43;;;;;;;39.90;22.40;;;;;;;3.43;90.34;97506.10;214095;1310;26372;-71
2022/11/22 20:33:48;;;;;;;48.90;22.00;;;;;;;3.43;90.45;97511.24;214282;1310;22484;-70
2022/11/22 20:38:51;;;;;;;42.50;22.00;;;;;;;3.41;90.59;97514.86;214122;1298;22473;-71
2022/11/22 20:43:54;;;;;;;43.30;21.70;;;;;;;3.40;90.57;97523.23;214337;1310;25423;-70
2022/11/22 20:48:56;;;;;;;45.50;22.90;;;;;;;3.40;90.72;97521.25;214226;1310;23828;-71
2022/11/22 20:53:58;;;;;;;45.90;23.30;;;;;;;3.40;90.87;97528.35;214158;1310;22473;-71
2022/11/22 20:59:00;;;;;;;42.30;22.10;;;;;;;3.36;90.98;97526.15;214338;1310;22505;-73
2022/11/22 21:04:02;;;;;;;44.00;20.80;;;;;;;3.33;90.80;97524.10;214142;1310;24440;-70
2022/11/22 21:09:04;;;;;;;39.40;20.00;;;;;;;3.27;90.66;97526.34;214248;1310;25330;-72
2022/11/22 21:14:06;;;;;;;31.80;18.20;;;;;;;3.23;90.92;97521.27;214004;1310;23039;-71
2022/11/22 21:19:08;;;;;;;28.90;16.10;;;;;;;3.16;90.94;97523.21;214079;1307;22696;-71
2022/11/22 21:24:12;;;;;;;24.00;13.20;;;;;;;3.11;91.16;97514.87;214280;1310;24316;-72
2022/11/22 21:29:14;;;;;;;25.50;14.50;;;;;;;3.09;91.36;97515.77;214398;1305;24753;-71
2022/11/22 21:34:17;;;;;;;26.60;14.20;;;;;;;3.07;91.37;97519.73;214204;1310;22598;-70
2022/11/22 21:39:19;;;;;;;27.60;14.20;;;;;;;3.02;91.35;97523.41;214186;1303;22489;-71
2022/11/22 21:44:21;;;;;;;26.70;14.30;;;;;;;2.96;91.23;97528.56;214371;1310;22497;-71
2022/11/22 21:49:23;;;;;;;31.40;15.10;;;;;;;2.88;91.33;97529.70;214379;1309;24353;-71
2022/11/22 21:54:25;;;;;;;32.60;16.90;;;;;;;2.86;91.55;97520.98;214076;1310;24351;-71
2022/11/22 21:59:27;;;;;;;35.00;16.30;;;;;;;2.84;91.63;97520.98;214376;1310;22479;-71
2022/11/22 22:04:29;;;;;;;34.90;16.90;;;;;;;2.82;91.68;97527.44;214328;1310;22548;-71
2022/11/22 22:09:31;;;;;;;34.80;16.00;;;;;;;2.79;91.80;97536.27;214251;1310;25366;-70
2022/11/22 22:14:38;;;;;;;30.90;16.30;;;;;;;2.80;92.02;97541.66;214100;1310;22670;-70
2022/11/22 22:19:41;;;;;;;30.80;14.70;;;;;;;2.78;91.90;97544.68;214036;1309;22484;-72
2022/11/22 22:24:43;;;;;;;30.60;14.70;;;;;;;2.77;91.87;97545.38;214147;1309;23746;-71
2022/11/22 22:29:45;;;;;;;33.60;16.90;;;;;;;2.78;92.02;97548.39;214364;1310;22490;-71
2022/11/22 22:34:47;;;;;;;34.40;16.40;;;;;;;2.77;92.09;97552.77;214286;1310;23772;-71
2022/11/22 22:39:49;;;;;;;29.60;15.10;;;;;;;2.73;91.96;97546.61;213972;1310;154242;-70
2022/11/22 22:44:52;;;;;;;30.80;14.90;;;;;;;2.68;91.88;97542.32;214053;1304;22687;-71
2022/11/22 22:49:54;;;;;;;33.00;16.40;;;;;;;2.58;91.81;97539.48;214124;1310;25294;-70
2022/11/22 22:54:56;;;;;;;36.80;17.50;;;;;;;2.51;92.07;97539.17;214226;1310;22499;-71
2022/11/22 22:59:58;;;;;;;37.80;16.20;;;;;;;2.48;92.03;97541.44;214256;1302;22517;-71
2022/11/22 23:05:00;;;;;;;36.90;16.80;;;;;;;2.45;92.12;97539.23;214245;1305;22690;-70
2022/11/22 23:10:01;;;;;;;32.20;15.60;;;;;;;2.40;92.00;97544.94;214402;1310;24458;-71
2022/11/22 23:15:04;;;;;;;37.20;16.80;;;;;;;2.34;92.02;97538.28;214227;1310;22461;-71
2022/11/22 23:20:06;;;;;;;34.90;17.80;;;;;;;2.30;92.12;97538.12;214138;1310;22472;-73
2022/11/22 23:25:09;;;;;;;40.50;19.80;;;;;;;2.28;92.10;97536.90;214045;1310;22715;-71
2022/11/22 23:30:11;;;;;;;30.70;16.30;;;;;;;2.21;92.11;97542.34;214011;1310;24365;-71
2022/11/22 23:35:13;;;;;;;33.90;16.40;;;;;;;2.14;92.25;97544.09;214373;1310;22454;-70
2022/11/22 23:40:14;;;;;;;35.20;17.30;;;;;;;2.11;92.29;97548.09;214012;1310;23781;-71